Time;durP1;ratioP1;P1;durP2;ratioP2;P2;SDS_P1;SDS_P2;PMS_P1;PMS_P2;Temp;Humidity;BMP_temperature;BMP_pressure;BME280_temperature;BME280_humidity;BME280_pressure;Samples;Min_cycle;Max_cycle;Signal;HPM_P1;HPM_P2
2023/01/15 00:01:00;;;;;;;17.80;10.17;;;;;;;4.16;100.00;94888.81;5071877;28;20594;-53
2023/01/15 00:03:26;;;;;;;22.63;10.33;;;;;;;4.21;100.00;94893.59;5071741;28;20243;-53
2023/01/15 00:05:51;;;;;;;17.90;9.27;;;;;;;4.22;100.00;94893.50;5071537;28;20213;-53
2023/01/15 00:08:17;;;;;;;19.83;11.17;;;;;;;4.23;100.00;94892.59;5071889;28;20213;-56
2023/01/15 00:10:43;;;;;;;14.40;8.43;;;;;;;4.35;100.00;94900.34;5071533;28;20270;-57
2023/01/15 00:13:08;;;;;;;18.20;9.07;;;;;;;4.33;100.00;94913.03;5070288;28;20192;-56
2023/01/15 00:15:34;;;;;;;13.67;8.87;;;;;;;4.26;100.00;94894.16;5071464;28;20196;-56
2023/01/15 00:18:00;;;;;;;16.97;9.53;;;;;;;4.35;100.00;94911.22;5071612;28;20693;-52
2023/01/15 00:20:25;;;;;;;17.97;8.90;;;;;;;4.50;100.00;94924.66;5071396;28;20700;-56
2023/01/15 00:22:51;;;;;;;17.60;8.37;;;;;;;4.40;100.00;94921.84;5072096;28;20212;-53
2023/01/15 00:28:01;;;;;;;17.63;9.90;;;;;;;4.39;100.00;94915.19;5072135;28;20222;-56
2023/01/15 00:30:26;;;;;;;14.83;9.33;;;;;;;4.40;100.00;94919.34;5071371;28;20203;-56
2023/01/15 00:32:52;;;;;;;15.73;9.67;;;;;;;4.36;100.00;94920.41;5052396;28;20200;-57
2023/01/15 00:35:20;;;;;;;18.57;10.37;;;;;;;4.35;100.00;94911.22;5070974;28;20236;-53
2023/01/15 00:37:45;;;;;;;17.57;9.37;;;;;;;4.45;100.00;94917.34;5071468;28;20220;-55
2023/01/15 00:40:20;;;;;;;18.70;9.93;;;;;;;4.38;100.00;94895.16;5071197;28;20232;-56
2023/01/15 00:42:46;;;;;;;14.83;9.13;;;;;;;4.48;100.00;94902.09;5071099;28;20695;-57
2023/01/15 00:45:11;;;;;;;21.83;10.73;;;;;;;4.50;100.00;94905.34;5053240;28;20247;-57
2023/01/15 00:47:39;;;;;;;20.30;10.40;;;;;;;4.54;100.00;94923.59;5071533;28;20197;-53
2023/01/15 00:50:06;;;;;;;18.83;10.53;;;;;;;4.55;100.00;94922.66;5071124;28;20278;-56
2023/01/15 00:52:32;;;;;;;15.33;9.90;;;;;;;4.44;100.00;94918.28;5071371;28;20191;-53
2023/01/15 00:54:57;;;;;;;17.87;9.17;;;;;;;4.42;100.00;94912.50;5071037;28;20212;-54
2023/01/15 00:57:23;;;;;;;16.07;8.77;;;;;;;4.30;100.00;94905.66;5071457;28;20225;-53
2023/01/15 00:59:48;;;;;;;15.57;9.00;;;;;;;4.28;100.00;94894.88;5071064;28;20805;-56
2023/01/15 01:02:13;;;;;;;16.50;9.53;;;;;;;4.30;100.00;94905.66;5070998;28;20200;-55
2023/01/15 01:04:39;;;;;;;17.77;9.10;;;;;;;4.37;100.00;94899.38;5070790;28;20299;-53
2023/01/15 01:07:05;;;;;;;17.87;9.97;;;;;;;4.48;100.00;94908.84;5071059;28;20200;-52
2023/01/15 01:09:30;;;;;;;16.97;9.13;;;;;;;4.44;100.00;94917.44;5070845;28;20219;-52
2023/01/15 01:11:56;;;;;;;16.00;8.53;;;;;;;4.54;100.00;94909.28;5070992;28;20205;-56
2023/01/15 01:14:21;;;;;;;15.40;8.43;;;;;;;4.54;100.00;94916.84;5052846;28;20262;-57
2023/01/15 01:16:46;;;;;;;13.67;7.87;;;;;;;4.46;100.00;94925.72;5071053;28;20204;-57
2023/01/15 01:19:19;;;;;;;14.57;8.53;;;;;;;4.42;100.00;94932.66;5070687;28;20649;-52
2023/01/15 01:21:46;;;;;;;14.40;9.47;;;;;;;4.35;100.00;94926.31;5070777;28;20241;-57
2023/01/15 01:24:19;;;;;;;13.67;8.83;;;;;;;4.42;100.00;94920.06;5071516;28;20188;-53
2023/01/15 01:26:46;;;;;;;15.30;8.23;;;;;;;4.38;100.00;94916.09;5074516;28;20195;-56
2023/01/15 01:29:12;;;;;;;14.40;7.80;;;;;;;4.33;100.00;94917.22;5074300;28;20282;-57
2023/01/15 01:31:37;;;;;;;13.40;7.37;;;;;;;4.43;100.00;94924.19;5074675;28;20199;-53
2023/01/15 01:34:03;;;;;;;14.93;8.27;;;;;;;4.56;100.00;94922.59;5074300;28;20194;-52
2023/01/15 01:36:34;;;;;;;17.30;9.90;;;;;;;4.51;100.00;94917.00;5074469;28;20199;-55
2023/01/15 01:39:00;;;;;;;16.47;9.43;;;;;;;4.45;100.00;94897.22;5074175;28;20222;-53
2023/01/15 01:41:27;;;;;;;16.13;9.07;;;;;;;4.52;100.00;94903.53;5074091;28;20224;-53
2023/01/15 01:44:00;;;;;;;16.80;9.83;;;;;;;4.48;100.00;94897.06;5073872;28;20188;-58
2023/01/15 01:46:27;;;;;;;17.17;9.40;;;;;;;4.23;100.00;94885.06;5074168;28;20270;-54
2023/01/15 01:49:01;;;;;;;15.43;8.33;;;;;;;4.27;100.00;94873.09;5074226;28;20183;-53
2023/01/15 01:51:34;;;;;;;17.27;9.63;;;;;;;4.36;100.00;94882.66;5074109;28;20255;-56
2023/01/15 01:54:01;;;;;;;15.33;8.67;;;;;;;4.36;100.00;94881.84;5073802;28;20181;-55
2023/01/15 01:56:27;;;;;;;13.90;8.97;;;;;;;4.26;100.00;94862.22;5074155;28;20203;-52
2023/01/15 01:58:54;;;;;;;17.17;8.50;;;;;;;4.27;100.00;94863.03;5055878;28;20196;-55
2023/01/15 02:01:23;;;;;;;16.93;9.87;;;;;;;4.43;100.00;94866.31;5073830;28;20224;-56
2023/01/15 02:03:49;;;;;;;15.33;8.80;;;;;;;4.37;100.00;94884.28;5073776;28;20269;-55
2023/01/15 02:06:15;;;;;;;16.77;9.43;;;;;;;4.47;100.00;94885.38;5073749;28;20220;-56
2023/01/15 02:08:40;;;;;;;14.57;8.70;;;;;;;4.52;100.00;94897.69;5073619;28;20199;-54
2023/01/15 02:11:10;;;;;;;11.67;7.93;;;;;;;4.49;100.00;94910.44;5073751;28;20208;-55
2023/01/15 02:13:38;;;;;;;16.53;8.37;;;;;;;4.65;100.00;94924.59;5073818;28;20192;-55
2023/01/15 02:16:15;;;;;;;19.90;9.70;;;;;;;4.67;100.00;94914.41;5073657;28;20212;-56
2023/01/15 02:19:05;;;;;;;15.83;8.63;;;;;;;4.58;100.00;94877.19;5055608;28;20270;-53
2023/01/15 02:22:01;;;;;;;14.43;8.30;;;;;;;4.90;100.00;94902.13;5073804;28;20215;-55
2023/01/15 02:24:27;;;;;;;18.87;10.20;;;;;;;4.75;100.00;94928.19;5073482;28;20207;-56
2023/01/15 02:27:05;;;;;;;15.47;9.47;;;;;;;4.80;100.00;94907.78;5055689;28;20192;-57
2023/01/15 02:30:01;;;;;;;16.23;9.60;;;;;;;4.69;100.00;94895.81;5073513;28;20277;-56
2023/01/15 02:33:05;;;;;;;17.90;10.77;;;;;;;4.54;100.00;94878.28;5055324;28;20254;-56
2023/01/15 02:35:45;;;;;;;17.47;9.47;;;;;;;4.67;100.00;94885.03;5027050;28;20227;-52
2023/01/15 02:38:16;;;;;;;15.80;9.10;;;;;;;4.68;100.00;94866.50;5073558;28;20195;-56
2023/01/15 02:40:42;;;;;;;21.30;10.97;;;;;;;4.74;100.00;94875.41;5055063;28;20288;-53
2023/01/15 02:43:11;;;;;;;18.07;9.60;;;;;;;4.95;100.00;94879.16;5073608;28;20206;-56
2023/01/15 02:45:40;;;;;;;20.40;11.10;;;;;;;5.07;100.00;94876.72;5073207;28;20238;-53
2023/01/15 02:48:12;;;;;;;20.87;10.30;;;;;;;5.14;100.00;94907.41;5073416;28;20199;-53
2023/01/15 02:50:43;;;;;;;18.43;10.30;;;;;;;5.17;100.00;94909.78;5073211;28;20642;-56
2023/01/15 02:53:14;;;;;;;15.20;9.37;;;;;;;5.23;100.00;94906.06;5073183;28;20685;-54
2023/01/15 02:55:44;;;;;;;18.70;10.30;;;;;;;5.21;100.00;94906.16;5072982;28;20700;-58
2023/01/15 02:58:15;;;;;;;22.13;10.83;;;;;;;5.22;100.00;94922.06;5072704;28;20192;-53
2023/01/15 03:00:45;;;;;;;17.30;9.50;;;;;;;5.28;100.00;94896.50;5072844;28;20270;-56
2023/01/15 03:03:36;;;;;;;18.10;10.53;;;;;;;5.38;100.00;94950.50;5073437;28;20207;-57
2023/01/15 03:06:13;;;;;;;19.10;10.13;;;;;;;5.40;100.00;94931.06;5072716;28;20204;-56
2023/01/15 03:08:39;;;;;;;21.83;10.27;;;;;;;5.35;100.00;94908.66;5073013;28;20241;-51
2023/01/15 03:11:13;;;;;;;18.23;10.60;;;;;;;4.92;100.00;94900.34;5072699;28;20204;-57
2023/01/15 03:13:41;;;;;;;17.63;10.60;;;;;;;4.83;100.00;94890.78;5072734;28;20199;-56
2023/01/15 03:16:34;;;;;;;19.73;10.87;;;;;;;4.66;100.00;94859.94;5072389;28;20337;-53
2023/01/15 03:19:40;;;;;;;19.03;10.30;;;;;;;4.57;100.00;94853.72;5070565;28;20266;-56
2023/01/15 03:22:27;;;;;;;16.40;9.30;;;;;;;4.78;100.00;94852.50;5071572;28;20232;-56
2023/01/15 03:25:13;;;;;;;17.77;9.97;;;;;;;4.87;100.00;94879.63;5071242;28;20219;-56
2023/01/15 03:27:39;;;;;;;16.90;9.27;;;;;;;4.95;100.00;94874.13;5071994;28;20202;-53
2023/01/15 03:30:13;;;;;;;17.27;9.97;;;;;;;5.00;100.00;94867.94;5070942;28;20707;-53
2023/01/15 03:32:39;;;;;;;19.40;10.27;;;;;;;5.07;100.00;94881.78;5070524;28;20203;-55
2023/01/15 03:35:26;;;;;;;20.57;10.43;;;;;;;5.35;100.00;94930.53;5072000;28;20227;-53
2023/01/15 03:37:51;;;;;;;17.97;10.30;;;;;;;5.27;100.00;94907.50;5072158;28;20189;-56
2023/01/15 03:40:17;;;;;;;19.03;9.70;;;;;;;5.23;100.00;94922.00;5071747;28;20584;-53
2023/01/15 03:42:48;;;;;;;15.67;9.83;;;;;;;5.32;100.00;94897.94;5054226;28;20224;-57
2023/01/15 03:45:26;;;;;;;16.37;9.67;;;;;;;5.41;100.00;94925.13;5072123;28;20212;-55
2023/01/15 03:47:54;;;;;;;15.17;9.20;;;;;;;5.70;100.00;94974.59;5072470;28;20195;-57
2023/01/15 03:50:22;;;;;;;18.03;10.33;;;;;;;5.62;100.00;94964.16;5072207;28;20212;-52
2023/01/15 03:52:57;;;;;;;22.07;10.37;;;;;;;5.53;100.00;94965.53;5072349;28;20205;-57
2023/01/15 03:55:32;;;;;;;15.60;9.30;;;;;;;5.53;100.00;94954.63;5071927;28;20217;-57
2023/01/15 03:58:26;;;;;;;13.20;8.30;;;;;;;5.45;100.00;94919.81;5072657;28;20188;-55
2023/01/15 04:00:54;;;;;;;16.30;9.00;;;;;;;5.48;100.00;94951.56;5066055;28;20235;-56
2023/01/15 04:03:22;;;;;;;17.57;9.03;;;;;;;5.49;100.00;94978.41;5072035;28;20196;-52
2023/01/15 04:05:50;;;;;;;15.60;8.87;;;;;;;5.53;100.00;94959.69;5071738;28;20308;-56
2023/01/15 04:08:16;;;;;;;13.97;8.03;;;;;;;5.49;100.00;94960.75;5072047;28;20200;-56
2023/01/15 04:10:57;;;;;;;13.53;8.33;;;;;;;5.40;100.00;94929.34;5071821;28;20268;-53
2023/01/15 04:13:23;;;;;;;13.57;8.30;;;;;;;5.43;100.00;94929.19;5071990;28;20632;-56
2023/01/15 04:15:50;;;;;;;15.70;8.90;;;;;;;5.42;100.00;94932.59;5053445;28;20216;-58
2023/01/15 04:18:16;;;;;;;16.00;8.63;;;;;;;5.43;100.00;94953.56;5071788;28;20254;-57
2023/01/15 04:20:42;;;;;;;12.47;8.20;;;;;;;5.42;100.00;94942.66;5071435;28;20270;-56
2023/01/15 04:23:08;;;;;;;15.90;8.37;;;;;;;5.47;100.00;94955.00;5071786;28;20192;-56
2023/01/15 04:25:34;;;;;;;14.70;8.30;;;;;;;5.46;100.00;94955.88;5071540;28;20215;-52
2023/01/15 04:27:59;;;;;;;13.20;8.07;;;;;;;5.49;100.00;94946.44;5071626;28;20307;-56
2023/01/15 04:30:25;;;;;;;14.40;8.67;;;;;;;5.73;100.00;94982.78;5071582;28;20261;-53
2023/01/15 04:32:51;;;;;;;14.60;8.23;;;;;;;5.58;100.00;94971.09;5071854;28;20287;-53
2023/01/15 04:35:18;;;;;;;11.20;6.80;;;;;;;5.62;100.00;94979.28;5053383;28;20209;-53
2023/01/15 04:37:44;;;;;;;15.90;7.90;;;;;;;5.54;100.00;94971.38;5071804;28;20248;-55
2023/01/15 04:44:05;;;;;;;12.13;6.97;;;;;;;5.51;100.00;94969.03;5071213;28;20271;-52
2023/01/15 04:45:44;;;;;;;14.37;7.93;;;;;;;5.47;100.00;94982.72;5056501;28;20243;-54
2023/01/15 04:48:11;;;;;;;11.23;7.20;;;;;;;5.53;100.00;94977.31;5071306;28;20186;-53
2023/01/15 04:50:37;;;;;;;11.97;7.83;;;;;;;5.70;100.00;95022.50;5071180;28;20204;-53
2023/01/15 04:53:03;;;;;;;13.50;7.53;;;;;;;5.64;100.00;95021.16;5071684;28;20207;-54
2023/01/15 04:55:29;;;;;;;12.53;6.77;;;;;;;5.83;100.00;95051.16;5070523;28;20245;-56
2023/01/15 04:57:54;;;;;;;9.30;5.70;;;;;;;5.69;100.00;95086.47;5071225;28;20248;-56
2023/01/15 05:00:21;;;;;;;10.37;6.20;;;;;;;5.56;100.00;95050.25;5070288;28;20211;-57
2023/01/15 05:02:47;;;;;;;15.67;9.17;;;;;;;5.45;100.00;95008.03;5071319;28;20200;-53
2023/01/15 05:05:13;;;;;;;17.23;9.50;;;;;;;5.35;100.00;94956.56;5070966;28;20214;-54
2023/01/15 05:07:38;;;;;;;20.60;9.97;;;;;;;5.25;100.00;94932.81;5071195;28;20653;-53
2023/01/15 05:10:04;;;;;;;20.63;11.50;;;;;;;5.41;100.00;94945.28;5070913;28;20199;-56
2023/01/15 05:12:30;;;;;;;19.83;10.40;;;;;;;5.33;100.00;94937.38;5071067;28;20189;-56
2023/01/15 05:14:55;;;;;;;20.23;10.67;;;;;;;5.29;100.00;94926.69;5070729;28;20218;-57
2023/01/15 05:17:20;;;;;;;18.80;11.03;;;;;;;5.17;100.00;94914.00;5053180;28;20199;-54
2023/01/15 05:19:46;;;;;;;21.93;11.70;;;;;;;5.28;100.00;94914.97;5070755;28;20215;-53
2023/01/15 05:22:11;;;;;;;19.00;10.20;;;;;;;5.33;100.00;94932.34;5071053;28;20218;-57
2023/01/15 05:24:36;;;;;;;19.37;10.50;;;;;;;5.24;100.00;94897.59;5070987;28;20246;-57
2023/01/15 05:27:04;;;;;;;19.60;11.27;;;;;;;5.40;100.00;94928.53;5070998;28;20250;-56
2023/01/15 05:29:30;;;;;;;24.00;11.20;;;;;;;5.30;100.00;94905.59;5070858;28;20265;-56
2023/01/15 05:31:55;;;;;;;16.67;9.40;;;;;;;5.34;100.00;94929.72;5070801;28;20184;-53
2023/01/15 05:34:20;;;;;;;20.90;11.37;;;;;;;5.43;100.00;94954.38;5070608;28;20196;-56
2023/01/15 05:36:46;;;;;;;19.80;11.07;;;;;;;5.43;100.00;94948.53;5070918;28;20617;-60
2023/01/15 05:39:11;;;;;;;21.30;11.80;;;;;;;5.43;100.00;94943.50;5070708;28;20264;-54
2023/01/15 05:41:49;;;;;;;18.33;10.13;;;;;;;5.53;100.00;94950.41;5070938;28;20636;-53
2023/01/15 05:44:23;;;;;;;18.37;10.73;;;;;;;5.47;100.00;94957.53;5070390;28;20188;-53
2023/01/15 05:46:52;;;;;;;19.97;10.90;;;;;;;5.33;100.00;94907.13;5070695;28;20559;-55
2023/01/15 05:49:20;;;;;;;18.73;9.90;;;;;;;5.44;100.00;94925.75;5070335;28;20300;-53
2023/01/15 05:51:46;;;;;;;18.07;10.33;;;;;;;5.65;100.00;94898.41;5070667;28;20231;-54
2023/01/15 05:54:15;;;;;;;18.17;10.17;;;;;;;5.83;100.00;94978.00;5070297;28;20589;-53
2023/01/15 05:56:42;;;;;;;17.30;10.50;;;;;;;5.64;100.00;94937.13;5070494;28;20192;-53
2023/01/15 05:59:08;;;;;;;19.07;10.83;;;;;;;5.34;100.00;94899.47;5070470;28;20192;-57
2023/01/15 06:01:34;;;;;;;17.87;10.63;;;;;;;5.53;100.00;94947.06;5070677;28;20745;-56
2023/01/15 06:04:01;;;;;;;18.00;10.10;;;;;;;5.74;100.00;95004.56;5070241;28;20187;-57
2023/01/15 06:06:27;;;;;;;14.63;8.53;;;;;;;5.65;100.00;94996.75;5070412;28;20207;-56
2023/01/15 06:08:53;;;;;;;23.87;11.10;;;;;;;5.68;100.00;94958.72;5070066;28;20191;-54
2023/01/15 06:11:18;;;;;;;16.60;9.73;;;;;;;5.55;100.00;94936.00;5072501;28;20693;-58
2023/01/15 06:13:44;;;;;;;15.07;8.73;;;;;;;5.53;100.00;94968.06;5073682;28;20711;-53
2023/01/15 06:16:10;;;;;;;19.77;10.03;;;;;;;5.37;100.00;94933.78;5073462;28;20219;-54
2023/01/15 06:18:37;;;;;;;18.87;9.70;;;;;;;5.45;100.00;94946.72;5073484;28;20233;-53
2023/01/15 06:21:04;;;;;;;15.27;8.97;;;;;;;5.49;100.00;94958.25;5073653;28;20227;-56
2023/01/15 06:23:30;;;;;;;17.90;9.67;;;;;;;5.68;100.00;94978.91;5073736;28;20589;-57
2023/01/15 06:26:00;;;;;;;17.70;9.00;;;;;;;5.71;100.00;94966.13;5073337;28;20271;-55
2023/01/15 06:28:26;;;;;;;16.53;8.70;;;;;;;5.71;100.00;94982.06;5073478;28;20216;-54
2023/01/15 06:30:51;;;;;;;13.53;8.13;;;;;;;5.69;100.00;94973.78;5073243;28;20204;-53
2023/01/15 06:33:16;;;;;;;15.03;8.07;;;;;;;5.76;100.00;94995.19;5073495;28;20196;-55
2023/01/15 06:35:42;;;;;;;15.33;7.80;;;;;;;5.74;100.00;95011.31;5073154;28;20205;-57
2023/01/15 06:38:07;;;;;;;14.20;7.73;;;;;;;5.70;100.00;94989.72;5055396;28;20223;-57
2023/01/15 06:40:33;;;;;;;12.10;6.93;;;;;;;5.76;100.00;94981.78;5073197;28;20274;-53
2023/01/15 06:48:26;;;;;;;10.77;6.80;;;;;;;5.81;100.00;95036.09;5073506;28;20204;-57
2023/01/15 06:50:52;;;;;;;14.20;8.50;;;;;;;5.70;100.00;95060.31;5073207;28;20605;-58
2023/01/15 06:53:19;;;;;;;12.43;7.23;;;;;;;5.71;100.00;95039.25;5072942;28;20193;-56
2023/01/15 06:55:44;;;;;;;12.50;7.63;;;;;;;5.68;100.00;95019.25;5072949;28;20221;-53
2023/01/15 06:58:10;;;;;;;15.73;7.70;;;;;;;5.72;100.00;95019.00;5073259;28;20196;-55
2023/01/15 07:00:35;;;;;;;12.40;6.97;;;;;;;5.76;100.00;95012.84;5072822;28;20270;-56
2023/01/15 07:03:02;;;;;;;15.27;7.67;;;;;;;5.82;100.00;95036.91;5072908;28;20189;-55
2023/01/15 07:05:28;;;;;;;11.93;7.30;;;;;;;5.81;100.00;95020.97;5072906;28;20204;-57
2023/01/15 07:07:53;;;;;;;14.23;8.13;;;;;;;5.88;100.00;95052.50;5072626;28;20250;-53
2023/01/15 07:10:19;;;;;;;14.33;7.80;;;;;;;6.08;100.00;95079.06;5072648;28;20300;-57
2023/01/15 07:12:44;;;;;;;16.10;8.40;;;;;;;6.06;100.00;95045.53;5072536;28;20185;-53
2023/01/15 07:15:10;;;;;;;13.23;7.90;;;;;;;5.93;100.00;95048.00;5072620;28;20232;-57
2023/01/15 07:17:36;;;;;;;15.57;9.40;;;;;;;5.82;100.00;95034.38;5072966;28;20255;-54
2023/01/15 07:20:02;;;;;;;14.53;8.63;;;;;;;5.96;100.00;95052.03;5072484;28;20208;-56
2023/01/15 07:22:27;;;;;;;14.23;7.93;;;;;;;6.07;100.00;95037.06;5071958;28;20189;-57
2023/01/15 07:24:53;;;;;;;15.47;9.17;;;;;;;6.17;100.00;95017.94;5072327;28;20239;-53
2023/01/15 07:27:18;;;;;;;14.67;9.30;;;;;;;6.20;100.00;94999.28;5070909;28;20238;-58
2023/01/15 07:29:44;;;;;;;23.77;12.47;;;;;;;6.17;100.00;94997.75;5072179;28;20614;-57
2023/01/15 07:32:10;;;;;;;23.17;12.60;;;;;;;6.22;100.00;94952.03;5072608;28;20196;-57
2023/01/15 07:34:35;;;;;;;21.87;13.77;;;;;;;5.96;100.00;94963.75;5071672;28;20205;-56
2023/01/15 07:37:01;;;;;;;23.00;12.20;;;;;;;5.93;100.00;94939.53;5070956;28;20580;-54
2023/01/15 07:39:27;;;;;;;20.00;11.17;;;;;;;6.15;100.00;94976.84;5071398;28;20216;-53
2023/01/15 07:50:11;;;;;;;17.83;10.57;;;;;;;6.33;100.00;95076.69;5072300;28;20211;-54
2023/01/15 07:52:36;;;;;;;20.30;11.87;;;;;;;6.30;100.00;95026.34;5072411;28;20189;-56
2023/01/15 07:55:02;;;;;;;30.33;16.63;;;;;;;6.35;100.00;95036.19;5072270;28;20216;-53
2023/01/15 07:57:28;;;;;;;14.10;8.93;;;;;;;6.25;100.00;95115.91;5072167;28;20197;-54
2023/01/15 07:59:53;;;;;;;17.13;9.77;;;;;;;7.34;100.00;94852.69;5071674;28;20216;-54
2023/01/15 08:02:19;;;;;;;16.97;10.67;;;;;;;7.48;100.00;95097.06;5071913;28;20209;-54
2023/01/15 08:04:46;;;;;;;13.93;9.57;;;;;;;7.49;100.00;95108.81;5071919;28;20204;-55
2023/01/15 08:07:11;;;;;;;48.57;24.80;;;;;;;7.39;100.00;95049.66;5071844;28;20422;-53
2023/01/15 08:09:44;;;;;;;20.13;11.73;;;;;;;7.32;100.00;95061.06;5071432;28;20208;-54
2023/01/15 08:15:13;;;;;;;22.47;13.90;;;;;;;7.04;100.00;95033.44;5072030;28;20212;-55
2023/01/15 08:17:41;;;;;;;21.13;12.33;;;;;;;6.94;100.00;95034.94;5071974;28;20250;-55
2023/01/15 08:20:11;;;;;;;21.27;11.93;;;;;;;7.00;100.00;95020.19;5071241;28;20295;-54
2023/01/15 08:22:37;;;;;;;23.77;13.50;;;;;;;7.01;100.00;94940.13;5071722;28;20289;-57
2023/01/15 08:25:03;;;;;;;22.00;12.63;;;;;;;7.07;100.00;94998.66;5071398;28;20228;-54
2023/01/15 08:27:29;;;;;;;20.33;12.93;;;;;;;7.07;100.00;94967.53;5070154;28;20216;-55
2023/01/15 08:29:55;;;;;;;23.27;13.30;;;;;;;7.31;100.00;95039.22;5071356;28;20583;-55
2023/01/15 08:32:22;;;;;;;23.73;12.97;;;;;;;7.40;100.00;95069.75;5071338;28;20193;-55
2023/01/15 08:34:48;;;;;;;21.33;12.50;;;;;;;7.39;100.00;95078.25;5070123;28;20574;-55
2023/01/15 08:37:13;;;;;;;26.17;15.10;;;;;;;7.30;100.00;95052.75;5071615;28;20189;-58
2023/01/15 08:39:39;;;;;;;31.47;17.40;;;;;;;7.22;100.00;95019.59;5071173;28;20204;-57
2023/01/15 08:42:04;;;;;;;24.83;15.23;;;;;;;6.99;100.00;95013.50;5070019;28;20731;-57
2023/01/15 08:44:29;;;;;;;25.27;14.40;;;;;;;7.12;100.00;95039.59;5070962;28;20204;-57
2023/01/15 08:46:55;;;;;;;24.70;13.63;;;;;;;7.20;100.00;95044.16;5069670;28;20207;-58
2023/01/15 08:49:20;;;;;;;26.83;15.03;;;;;;;7.26;100.00;95052.16;5070795;28;20588;-55
2023/01/15 08:51:50;;;;;;;22.57;13.10;;;;;;;7.28;100.00;95045.28;5071201;28;20185;-54
2023/01/15 08:54:18;;;;;;;21.40;12.87;;;;;;;7.30;100.00;95058.63;5071137;28;20192;-57
2023/01/15 08:56:43;;;;;;;23.37;12.53;;;;;;;7.16;100.00;95041.03;5071019;28;20192;-54
2023/01/15 08:59:09;;;;;;;22.57;13.03;;;;;;;7.11;100.00;95065.78;5053111;28;20238;-52
2023/01/15 09:01:34;;;;;;;21.73;12.83;;;;;;;7.14;100.00;95047.91;5071127;28;20240;-56
2023/01/15 09:04:00;;;;;;;21.07;13.30;;;;;;;7.09;100.00;95031.44;5070783;28;20577;-56
2023/01/15 09:06:26;;;;;;;22.87;13.87;;;;;;;7.26;100.00;95057.22;5071198;28;20638;-56
2023/01/15 09:08:52;;;;;;;19.37;11.53;;;;;;;7.37;100.00;95074.22;5070853;28;20188;-55
2023/01/15 09:11:18;;;;;;;21.20;11.87;;;;;;;7.47;100.00;95095.47;5070905;28;20204;-53
2023/01/15 09:13:45;;;;;;;18.63;11.20;;;;;;;7.45;100.00;95080.38;5070970;28;20234;-54
2023/01/15 09:16:11;;;;;;;18.50;11.40;;;;;;;7.45;100.00;95113.25;5070743;28;20239;-54
2023/01/15 09:18:38;;;;;;;22.97;11.73;;;;;;;7.23;100.00;95066.72;5070664;28;20213;-56
2023/01/15 09:21:05;;;;;;;16.43;9.90;;;;;;;7.40;100.00;95084.13;5070288;28;20219;-57
2023/01/15 09:23:30;;;;;;;17.40;9.93;;;;;;;7.37;100.00;95074.22;5070873;28;20189;-55
2023/01/15 09:26:01;;;;;;;15.93;9.50;;;;;;;7.50;100.00;95087.66;5052689;28;20216;-57
2023/01/15 09:28:28;;;;;;;14.53;9.03;;;;;;;7.45;100.00;95094.75;5070535;28;20678;-57
2023/01/15 09:30:54;;;;;;;14.40;8.90;;;;;;;7.35;100.00;95098.81;5070452;28;20204;-58
2023/01/15 09:33:19;;;;;;;14.83;9.23;;;;;;;7.33;100.00;95081.19;5070775;28;20184;-55
2023/01/15 09:35:45;;;;;;;14.87;8.37;;;;;;;7.34;100.00;95114.88;5070529;28;20231;-54
2023/01/15 09:38:15;;;;;;;15.73;9.23;;;;;;;7.48;100.00;95127.44;5070726;28;20229;-57
2023/01/15 09:40:49;;;;;;;17.13;10.03;;;;;;;7.44;100.00;95095.66;5052542;28;20311;-57
2023/01/15 09:43:41;;;;;;;23.13;12.63;;;;;;;7.69;100.00;95067.03;5070538;28;20238;-54
2023/01/15 09:46:19;;;;;;;21.77;11.73;;;;;;;7.73;100.00;95068.44;5072352;28;20217;-57
2023/01/15 09:49:03;;;;;;;23.37;12.47;;;;;;;7.76;100.00;95055.59;5074080;28;20196;-57
2023/01/15 09:51:34;;;;;;;21.37;11.90;;;;;;;7.66;100.00;95060.44;5074134;28;20197;-54
2023/01/15 09:54:51;;;;;;;20.03;11.57;;;;;;;7.80;100.00;95031.69;5073929;28;20221;-54
2023/01/15 09:57:19;;;;;;;19.53;10.80;;;;;;;7.98;100.00;95084.41;5048282;28;20779;-54
2023/01/15 09:59:48;;;;;;;18.30;11.87;;;;;;;7.90;100.00;95068.91;5073846;28;20262;-57
2023/01/15 10:02:29;;;;;;;20.80;11.60;;;;;;;7.83;100.00;95037.34;5073812;28;20247;-57
2023/01/15 10:05:20;;;;;;;18.93;11.40;;;;;;;7.83;100.00;95046.66;5073701;28;20212;-55
2023/01/15 10:07:57;;;;;;;23.47;12.67;;;;;;;7.71;100.00;95047.50;5073558;28;20291;-53
2023/01/15 10:10:28;;;;;;;21.33;12.43;;;;;;;7.70;100.00;95008.72;5073636;28;20196;-54
2023/01/15 10:13:01;;;;;;;21.13;12.77;;;;;;;7.84;100.00;94983.28;5073475;28;20199;-57
2023/01/15 10:15:35;;;;;;;25.70;12.73;;;;;;;7.76;100.00;94988.06;5073553;28;20235;-57
2023/01/15 10:18:00;;;;;;;26.23;14.10;;;;;;;7.92;100.00;94981.03;5073962;28;20193;-57
2023/01/15 10:20:32;;;;;;;20.63;11.80;;;;;;;7.98;100.00;95005.91;5073238;28;20232;-57
2023/01/15 10:23:09;;;;;;;21.63;12.80;;;;;;;8.01;100.00;95032.75;5073775;28;20200;-54
2023/01/15 10:25:47;;;;;;;20.50;12.40;;;;;;;7.80;100.00;94981.88;5055381;28;20307;-57
2023/01/15 10:28:19;;;;;;;23.13;12.33;;;;;;;8.17;100.00;95013.06;5073279;28;20624;-53
2023/01/15 10:30:54;;;;;;;18.50;10.00;;;;;;;8.30;100.00;95046.78;5073287;28;20197;-56
2023/01/15 10:33:22;;;;;;;13.67;8.37;;;;;;;8.40;100.00;95099.22;5073335;28;20234;-57
2023/01/15 10:35:59;;;;;;;16.20;9.27;;;;;;;8.36;100.00;95066.63;5080698;22;20289;-53
2023/01/15 10:38:36;;;;;;;13.77;8.10;;;;;;;8.29;100.00;95075.56;5073280;28;20188;-57
2023/01/15 10:41:11;;;;;;;12.67;8.17;;;;;;;8.58;100.00;95089.56;5073199;28;20689;-54
2023/01/15 10:43:43;;;;;;;16.37;9.37;;;;;;;8.84;100.00;95085.19;5073218;28;20709;-53
2023/01/15 10:46:15;;;;;;;18.87;11.37;;;;;;;9.05;100.00;95045.63;5073523;28;20208;-56
2023/01/15 10:48:45;;;;;;;20.10;11.80;;;;;;;8.44;100.00;94930.09;5073064;28;20276;-57
2023/01/15 10:51:17;;;;;;;20.13;12.23;;;;;;;9.24;100.00;95020.50;5073333;28;20255;-53
2023/01/15 10:53:54;;;;;;;18.23;11.00;;;;;;;9.01;100.00;95028.97;5072988;28;20195;-54
2023/01/15 10:56:22;;;;;;;18.60;11.23;;;;;;;8.91;100.00;95010.28;5072486;28;20307;-54
2023/01/15 10:59:00;;;;;;;19.40;11.80;;;;;;;8.87;100.00;94965.78;5072347;28;20181;-54
2023/01/15 11:01:26;;;;;;;16.70;9.73;;;;;;;8.83;100.00;94989.75;5073052;28;20223;-53
2023/01/15 11:03:53;;;;;;;15.43;10.23;;;;;;;8.90;100.00;94998.53;5054773;28;20185;-55
2023/01/15 11:06:20;;;;;;;17.23;10.07;;;;;;;9.14;100.00;95004.34;5072630;28;20208;-54
2023/01/15 11:08:54;;;;;;;17.47;10.27;;;;;;;9.25;100.00;95040.69;5072593;28;20203;-54
2023/01/15 11:20:43;;;;;;;15.97;9.03;;;;;;;9.77;99.77;95035.09;5072846;28;20259;-56
2023/01/15 11:23:18;;;;;;;16.13;9.83;;;;;;;9.99;97.98;95060.50;5072742;28;20283;-57
2023/01/15 11:26:03;;;;;;;17.10;10.07;;;;;;;10.09;96.91;95083.44;5072443;28;20224;-54
2023/01/15 11:28:40;;;;;;;16.97;9.90;;;;;;;10.25;96.64;95076.31;5072625;28;20214;-57
2023/01/15 11:31:07;;;;;;;16.20;9.97;;;;;;;9.91;97.39;95047.56;5072060;28;20709;-57
2023/01/15 11:33:33;;;;;;;19.07;10.70;;;;;;;9.99;97.44;95037.63;5072243;28;20242;-54
2023/01/15 11:36:00;;;;;;;16.13;9.60;;;;;;;10.28;97.22;95035.41;5072475;28;20212;-54
2023/01/15 11:38:42;;;;;;;11.03;8.53;;;;;;;10.60;95.64;95066.78;5054319;28;20234;-56
2023/01/15 11:41:19;;;;;;;12.77;8.10;;;;;;;11.02;95.35;95072.75;5072262;28;20220;-55
2023/01/15 11:52:21;;;;;;;10.30;6.60;;;;;;;12.01;72.76;95152.06;5072099;28;20195;-56
2023/01/15 11:54:52;;;;;;;8.87;6.53;;;;;;;12.03;72.68;95140.03;5072129;28;20215;-56
2023/01/15 11:57:27;;;;;;;11.43;7.13;;;;;;;11.52;71.97;95133.13;5071900;28;20216;-58
2023/01/15 11:59:52;;;;;;;9.47;5.57;;;;;;;11.43;74.85;95060.03;5071996;28;20338;-58
2023/01/15 12:02:30;;;;;;;10.43;6.63;;;;;;;11.66;71.98;95107.38;5071686;28;20205;-58
2023/01/15 12:05:00;;;;;;;8.63;6.17;;;;;;;11.43;71.06;95059.25;5053765;28;20219;-58
2023/01/15 12:07:25;;;;;;;12.43;8.10;;;;;;;11.04;73.13;95002.19;5071838;28;20205;-58
2023/01/15 12:09:56;;;;;;;15.90;9.13;;;;;;;10.82;73.46;94981.97;5071569;28;20213;-58
2023/01/15 12:13:05;;;;;;;12.77;8.07;;;;;;;10.66;74.72;94964.59;5072017;28;21161;-61